sensor_id;sensor_type;location;lat;lon;timestamp;pressure;altitude;pressure_sealevel;temperature;humidity
8039;BME280;4062;49.844;8.120;2022-12-13T00:00:07;98825.38;;;13.70;57.84
8039;BME280;4062;49.844;8.120;2022-12-13T00:02:09;98817.41;;;13.70;57.86
8039;BME280;4062;49.844;8.120;2022-12-13T00:04:10;98816.53;;;13.70;57.72
8039;BME280;4062;49.844;8.120;2022-12-13T00:06:12;98815.69;;;13.69;57.80
8039;BME280;4062;49.844;8.120;2022-12-13T00:08:13;98812.94;;;13.71;57.70
8039;BME280;4062;49.844;8.120;2022-12-13T00:10:13;98807.72;;;13.69;57.73
8039;BME280;4062;49.844;8.120;2022-12-13T00:12:14;98802.41;;;13.69;57.73
8039;BME280;4062;49.844;8.120;2022-12-13T00:14:16;98808.56;;;13.70;57.85
8039;BME280;4062;49.844;8.120;2022-12-13T00:16:20;98805.06;;;13.69;57.72
8039;BME280;4062;49.844;8.120;2022-12-13T00:18:25;98812.94;;;13.71;57.84
8039;BME280;4062;49.844;8.120;2022-12-13T00:20:26;98805.06;;;13.69;57.74
8039;BME280;4062;49.844;8.120;2022-12-13T00:22:26;98807.63;;;13.71;57.66
8039;BME280;4062;49.844;8.120;2022-12-13T00:24:27;98800.59;;;13.70;57.87
8039;BME280;4062;49.844;8.120;2022-12-13T00:26:30;98805.91;;;13.70;57.80
8039;BME280;4062;49.844;8.120;2022-12-13T00:28:33;98801.47;;;13.70;57.77
8039;BME280;4062;49.844;8.120;2022-12-13T00:30:34;98788.22;;;13.70;57.74
8039;BME280;4062;49.844;8.120;2022-12-13T00:32:35;98792.63;;;13.70;58.19
8039;BME280;4062;49.844;8.120;2022-12-13T00:34:36;98783.75;;;13.71;57.71
8039;BME280;4062;49.844;8.120;2022-12-13T00:36:36;98790.88;;;13.70;57.78
8039;BME280;4062;49.844;8.120;2022-12-13T00:38:37;98788.22;;;13.70;57.83
8039;BME280;4062;49.844;8.120;2022-12-13T00:40:38;98787.31;;;13.70;57.80
8039;BME280;4062;49.844;8.120;2022-12-13T00:42:39;98792.59;;;13.71;57.73
8039;BME280;4062;49.844;8.120;2022-12-13T00:44:39;98785.47;;;13.72;57.82
8039;BME280;4062;49.844;8.120;2022-12-13T00:46:41;98786.41;;;13.71;57.79
8039;BME280;4062;49.844;8.120;2022-12-13T00:48:42;98780.25;;;13.70;57.76
8039;BME280;4062;49.844;8.120;2022-12-13T00:50:43;98775.78;;;13.71;57.74
8039;BME280;4062;49.844;8.120;2022-12-13T00:52:44;98782.00;;;13.70;57.73
8039;BME280;4062;49.844;8.120;2022-12-13T00:54:45;98771.41;;;13.70;57.64
8039;BME280;4062;49.844;8.120;2022-12-13T00:56:46;98780.25;;;13.70;57.67
8039;BME280;4062;49.844;8.120;2022-12-13T00:58:48;98766.03;;;13.71;57.93
8039;BME280;4062;49.844;8.120;2022-12-13T01:00:51;98774.06;;;13.70;57.73
8039;BME280;4062;49.844;8.120;2022-12-13T01:02:52;98775.78;;;13.71;57.72
8039;BME280;4062;49.844;8.120;2022-12-13T01:04:53;98776.72;;;13.70;57.68
8039;BME280;4062;49.844;8.120;2022-12-13T01:06:54;98770.56;;;13.69;57.74
8039;BME280;4062;49.844;8.120;2022-12-13T01:08:55;98770.56;;;13.69;57.86
8039;BME280;4062;49.844;8.120;2022-12-13T01:10:55;98767.91;;;13.69;57.82
8039;BME280;4062;49.844;8.120;2022-12-13T01:12:56;98764.38;;;13.69;57.75
8039;BME280;4062;49.844;8.120;2022-12-13T01:14:57;98769.63;;;13.70;57.77
8039;BME280;4062;49.844;8.120;2022-12-13T01:16:59;98766.09;;;13.70;57.83
8039;BME280;4062;49.844;8.120;2022-12-13T01:19:00;98777.59;;;13.70;57.70
8039;BME280;4062;49.844;8.120;2022-12-13T01:21:15;98779.31;;;13.71;57.63
8039;BME280;4062;49.844;8.120;2022-12-13T01:23:17;98782.00;;;13.70;57.72
8039;BME280;4062;49.844;8.120;2022-12-13T01:25:18;98779.31;;;13.71;57.64
8039;BME280;4062;49.844;8.120;2022-12-13T01:27:19;98781.16;;;13.69;57.74
8039;BME280;4062;49.844;8.120;2022-12-13T01:29:20;98775.88;;;13.69;57.94
8039;BME280;4062;49.844;8.120;2022-12-13T01:31:24;98774.06;;;13.70;57.61
8039;BME280;4062;49.844;8.120;2022-12-13T01:33:26;98776.72;;;13.70;57.78
8039;BME280;4062;49.844;8.120;2022-12-13T01:35:27;98777.59;;;13.70;57.64
8039;BME280;4062;49.844;8.120;2022-12-13T01:37:28;98779.44;;;13.68;57.79
8039;BME280;4062;49.844;8.120;2022-12-13T01:39:29;98775.78;;;13.71;57.77
8039;BME280;4062;49.844;8.120;2022-12-13T01:41:32;98772.28;;;13.70;57.72
8039;BME280;4062;49.844;8.120;2022-12-13T01:45:36;98771.34;;;13.71;57.67
8039;BME280;4062;49.844;8.120;2022-12-13T01:47:45;98765.16;;;13.71;57.79
8039;BME280;4062;49.844;8.120;2022-12-13T01:49:47;98765.16;;;13.71;57.73
8039;BME280;4062;49.844;8.120;2022-12-13T01:51:55;98767.91;;;13.69;57.71
8039;BME280;4062;49.844;8.120;2022-12-13T01:54:00;98767.91;;;13.69;57.78
8039;BME280;4062;49.844;8.120;2022-12-13T01:56:08;98766.97;;;13.70;57.66
8039;BME280;4062;49.844;8.120;2022-12-13T01:58:10;98760.88;;;13.68;57.71
8039;BME280;4062;49.844;8.120;2022-12-13T02:00:12;98769.63;;;13.70;57.74
8039;BME280;4062;49.844;8.120;2022-12-13T02:02:14;98764.38;;;13.69;57.82
8039;BME280;4062;49.844;8.120;2022-12-13T02:04:24;98756.41;;;13.69;57.71
8039;BME280;4062;49.844;8.120;2022-12-13T02:08:38;98753.75;;;13.69;57.73
8039;BME280;4062;49.844;8.120;2022-12-13T02:10:41;98753.69;;;13.70;58.00
8039;BME280;4062;49.844;8.120;2022-12-13T02:12:43;98759.84;;;13.71;57.72
8039;BME280;4062;49.844;8.120;2022-12-13T02:14:44;98753.69;;;13.70;57.72
8039;BME280;4062;49.844;8.120;2022-12-13T02:17:57;98756.41;;;13.69;57.73
8039;BME280;4062;49.844;8.120;2022-12-13T02:19:57;98760.88;;;13.68;57.79
8039;BME280;4062;49.844;8.120;2022-12-13T02:24:56;98762.59;;;13.69;57.75
8039;BME280;4062;49.844;8.120;2022-12-13T02:27:19;98762.59;;;13.69;57.78
8039;BME280;4062;49.844;8.120;2022-12-13T02:30:23;98766.97;;;13.70;57.72
8039;BME280;4062;49.844;8.120;2022-12-13T02:32:33;98767.75;;;13.72;57.64
8039;BME280;4062;49.844;8.120;2022-12-13T02:39:27;98762.59;;;13.69;57.69
8039;BME280;4062;49.844;8.120;2022-12-13T02:41:49;98765.25;;;13.69;57.68
8039;BME280;4062;49.844;8.120;2022-12-13T02:46:02;98763.53;;;13.68;57.59
8039;BME280;4062;49.844;8.120;2022-12-13T02:48:05;98757.28;;;13.69;57.64
8039;BME280;4062;49.844;8.120;2022-12-13T02:50:10;98750.25;;;13.68;57.44
8039;BME280;4062;49.844;8.120;2022-12-13T02:52:13;98753.75;;;13.69;57.94
8039;BME280;4062;49.844;8.120;2022-12-13T02:54:15;98758.13;;;13.70;57.73
8039;BME280;4062;49.844;8.120;2022-12-13T02:56:16;98743.13;;;13.69;57.81
8039;BME280;4062;49.844;8.120;2022-12-13T02:58:32;98742.28;;;13.68;57.73
8039;BME280;4062;49.844;8.120;2022-12-13T03:08:54;98729.84;;;13.69;57.64
8039;BME280;4062;49.844;8.120;2022-12-13T03:11:11;98734.31;;;13.68;57.94
8039;BME280;4062;49.844;8.120;2022-12-13T03:13:55;98738.78;;;13.68;57.81
8039;BME280;4062;49.844;8.120;2022-12-13T03:15:59;98736.97;;;13.68;57.76
8039;BME280;4062;49.844;8.120;2022-12-13T03:18:08;98742.28;;;13.68;57.67
8039;BME280;4062;49.844;8.120;2022-12-13T03:20:17;98742.28;;;13.68;57.79
8039;BME280;4062;49.844;8.120;2022-12-13T03:22:21;98744.00;;;13.69;57.67
8039;BME280;4062;49.844;8.120;2022-12-13T03:24:22;98740.47;;;13.69;57.68
8039;BME280;4062;49.844;8.120;2022-12-13T03:26:25;98735.16;;;13.69;57.73
8039;BME280;4062;49.844;8.120;2022-12-13T03:28:27;98734.31;;;13.68;57.78
8039;BME280;4062;49.844;8.120;2022-12-13T03:30:28;98739.63;;;13.68;57.68
8039;BME280;4062;49.844;8.120;2022-12-13T03:32:29;98740.47;;;13.69;57.71
8039;BME280;4062;49.844;8.120;2022-12-13T03:34:29;98740.56;;;13.67;57.76
8039;BME280;4062;49.844;8.120;2022-12-13T03:36:30;98747.59;;;13.68;57.85
8039;BME280;4062;49.844;8.120;2022-12-13T03:38:32;98743.22;;;13.67;57.77
8039;BME280;4062;49.844;8.120;2022-12-13T03:40:33;98744.13;;;13.66;57.75
8039;BME280;4062;49.844;8.120;2022-12-13T03:42:34;98740.56;;;13.67;57.67
8039;BME280;4062;49.844;8.120;2022-12-13T03:44:35;98741.44;;;13.68;57.81
8039;BME280;4062;49.844;8.120;2022-12-13T03:46:36;98741.44;;;13.68;57.73
8039;BME280;4062;49.844;8.120;2022-12-13T03:48:37;98742.28;;;13.68;57.68
8039;BME280;4062;49.844;8.120;2022-12-13T03:50:38;98737.81;;;13.69;57.60
8039;BME280;4062;49.844;8.120;2022-12-13T03:52:38;98741.44;;;13.68;57.88
8039;BME280;4062;49.844;8.120;2022-12-13T03:54:39;98742.28;;;13.68;57.76
8039;BME280;4062;49.844;8.120;2022-12-13T03:56:40;98742.28;;;13.68;57.72
8039;BME280;4062;49.844;8.120;2022-12-13T03:58:40;98737.81;;;13.69;57.72
8039;BME280;4062;49.844;8.120;2022-12-13T04:00:41;98736.97;;;13.68;57.72
8039;BME280;4062;49.844;8.120;2022-12-13T04:02:42;98736.03;;;13.69;57.59
8039;BME280;4062;49.844;8.120;2022-12-13T04:04:43;98727.19;;;13.69;57.68
8039;BME280;4062;49.844;8.120;2022-12-13T04:06:44;98729.84;;;13.69;57.69
8039;BME280;4062;49.844;8.120;2022-12-13T04:08:44;98726.34;;;13.68;57.55
8039;BME280;4062;49.844;8.120;2022-12-13T04:10:45;98725.44;;;13.69;57.60
8039;BME280;4062;49.844;8.120;2022-12-13T04:12:46;98727.28;;;13.67;57.73
8039;BME280;4062;49.844;8.120;2022-12-13T04:15:06;98722.84;;;13.68;57.71
8039;BME280;4062;49.844;8.120;2022-12-13T04:17:07;98722.84;;;13.68;57.76
8039;BME280;4062;49.844;8.120;2022-12-13T04:19:08;98729.00;;;13.68;57.63
8039;BME280;4062;49.844;8.120;2022-12-13T04:21:09;98732.59;;;13.67;57.74
8039;BME280;4062;49.844;8.120;2022-12-13T04:23:10;98732.50;;;13.69;57.60
8039;BME280;4062;49.844;8.120;2022-12-13T04:25:11;98729.84;;;13.69;57.69
8039;BME280;4062;49.844;8.120;2022-12-13T04:27:11;98721.03;;;13.68;57.54
8039;BME280;4062;49.844;8.120;2022-12-13T04:29:12;98727.19;;;13.69;57.50
8039;BME280;4062;49.844;8.120;2022-12-13T04:31:13;98727.19;;;13.69;57.61
8039;BME280;4062;49.844;8.120;2022-12-13T04:33:13;98731.66;;;13.68;57.60
8039;BME280;4062;49.844;8.120;2022-12-13T04:35:14;98731.66;;;13.68;57.68
8039;BME280;4062;49.844;8.120;2022-12-13T04:37:15;98731.66;;;13.68;57.61
8039;BME280;4062;49.844;8.120;2022-12-13T04:39:16;98734.31;;;13.68;57.65
8039;BME280;4062;49.844;8.120;2022-12-13T04:41:18;98736.97;;;13.68;57.85
8039;BME280;4062;49.844;8.120;2022-12-13T04:43:19;98734.22;;;13.70;57.60
8039;BME280;4062;49.844;8.120;2022-12-13T04:45:20;98734.31;;;13.68;57.62
8039;BME280;4062;49.844;8.120;2022-12-13T04:47:21;98734.31;;;13.68;57.68
8039;BME280;4062;49.844;8.120;2022-12-13T04:49:22;98739.63;;;13.68;57.69
8039;BME280;4062;49.844;8.120;2022-12-13T04:51:22;98743.22;;;13.67;57.66
8039;BME280;4062;49.844;8.120;2022-12-13T04:53:23;98737.91;;;13.67;57.66
8039;BME280;4062;49.844;8.120;2022-12-13T04:55:24;98737.06;;;13.67;57.73
8039;BME280;4062;49.844;8.120;2022-12-13T04:57:25;98732.59;;;13.67;57.62
8039;BME280;4062;49.844;8.120;2022-12-13T04:59:26;98731.66;;;13.68;57.59
8039;BME280;4062;49.844;8.120;2022-12-13T05:01:27;98729.94;;;13.67;57.60
8039;BME280;4062;49.844;8.120;2022-12-13T05:03:27;98734.44;;;13.65;57.78
8039;BME280;4062;49.844;8.120;2022-12-13T05:05:28;98735.34;;;13.66;57.70
8039;BME280;4062;49.844;8.120;2022-12-13T05:07:29;98730.88;;;13.66;57.69
8039;BME280;4062;49.844;8.120;2022-12-13T05:09:30;98729.16;;;13.65;57.71
8039;BME280;4062;49.844;8.120;2022-12-13T05:11:31;98727.28;;;13.67;57.74
8039;BME280;4062;49.844;8.120;2022-12-13T05:13:32;98728.22;;;13.66;57.57
8039;BME280;4062;49.844;8.120;2022-12-13T05:15:33;98734.31;;;13.68;57.62
8039;BME280;4062;49.844;8.120;2022-12-13T05:17:34;98730.81;;;13.68;57.69
8039;BME280;4062;49.844;8.120;2022-12-13T05:19:35;98732.59;;;13.67;57.70
8039;BME280;4062;49.844;8.120;2022-12-13T05:21:35;98728.16;;;13.68;57.74
8039;BME280;4062;49.844;8.120;2022-12-13T05:23:37;98728.16;;;13.68;57.59
8039;BME280;4062;49.844;8.120;2022-12-13T05:25:39;98726.44;;;13.67;57.68
8039;BME280;4062;49.844;8.120;2022-12-13T05:27:40;98732.59;;;13.67;57.62
8039;BME280;4062;49.844;8.120;2022-12-13T05:29:41;98726.44;;;13.67;57.66
8039;BME280;4062;49.844;8.120;2022-12-13T05:31:41;98722.91;;;13.66;57.63
8039;BME280;4062;49.844;8.120;2022-12-13T05:33:42;98726.44;;;13.67;57.73
8039;BME280;4062;49.844;8.120;2022-12-13T05:35:43;98720.19;;;13.68;57.66
8039;BME280;4062;49.844;8.120;2022-12-13T05:37:44;98723.78;;;13.67;57.62
8039;BME280;4062;49.844;8.120;2022-12-13T05:39:44;98721.97;;;13.67;57.63
8039;BME280;4062;49.844;8.120;2022-12-13T05:41:45;98724.63;;;13.67;57.62
8039;BME280;4062;49.844;8.120;2022-12-13T05:43:46;98719.31;;;13.67;57.69
8039;BME280;4062;49.844;8.120;2022-12-13T05:45:47;98717.59;;;13.66;57.76
8039;BME280;4062;49.844;8.120;2022-12-13T05:47:47;98711.34;;;13.67;57.53
8039;BME280;4062;49.844;8.120;2022-12-13T05:49:48;98700.75;;;13.67;57.74
8039;BME280;4062;49.844;8.120;2022-12-13T05:51:49;98698.09;;;13.67;57.59
8039;BME280;4062;49.844;8.120;2022-12-13T05:53:50;98694.59;;;13.67;57.66
8039;BME280;4062;49.844;8.120;2022-12-13T05:55:50;98700.75;;;13.67;57.65
8039;BME280;4062;49.844;8.120;2022-12-13T05:57:51;98706.97;;;13.66;57.70
8039;BME280;4062;49.844;8.120;2022-12-13T05:59:52;98710.56;;;13.65;57.61
8039;BME280;4062;49.844;8.120;2022-12-13T06:01:52;98699.91;;;13.67;57.69
8039;BME280;4062;49.844;8.120;2022-12-13T06:03:53;98698.16;;;13.66;57.64
8039;BME280;4062;49.844;8.120;2022-12-13T06:05:54;98691.13;;;13.65;57.63
8039;BME280;4062;49.844;8.120;2022-12-13T06:07:57;98695.50;;;13.66;57.63
8039;BME280;4062;49.844;8.120;2022-12-13T06:09:58;98713.16;;;13.67;57.65
8039;BME280;4062;49.844;8.120;2022-12-13T06:11:58;98714.09;;;13.66;57.62
8039;BME280;4062;49.844;8.120;2022-12-13T06:13:59;98703.53;;;13.64;57.77
8039;BME280;4062;49.844;8.120;2022-12-13T06:16:02;98720.25;;;13.66;57.67
8039;BME280;4062;49.844;8.120;2022-12-13T06:18:03;98722.06;;;13.66;57.55
8039;BME280;4062;49.844;8.120;2022-12-13T06:20:06;98726.44;;;13.67;57.65
8039;BME280;4062;49.844;8.120;2022-12-13T06:22:07;98721.13;;;13.67;57.58
8039;BME280;4062;49.844;8.120;2022-12-13T06:24:07;98718.47;;;13.67;57.68
8039;BME280;4062;49.844;8.120;2022-12-13T06:26:08;98710.50;;;13.67;57.70
8039;BME280;4062;49.844;8.120;2022-12-13T06:28:09;98715.81;;;13.67;57.62
8039;BME280;4062;49.844;8.120;2022-12-13T06:30:10;98718.47;;;13.67;57.62
8039;BME280;4062;49.844;8.120;2022-12-13T06:32:11;98723.78;;;13.67;57.61
8039;BME280;4062;49.844;8.120;2022-12-13T06:34:12;98717.59;;;13.66;57.63
8039;BME280;4062;49.844;8.120;2022-12-13T06:36:13;98708.78;;;13.66;57.61
8039;BME280;4062;49.844;8.120;2022-12-13T06:38:13;98707.78;;;13.68;57.47
8039;BME280;4062;49.844;8.120;2022-12-13T06:40:14;98712.22;;;13.68;57.56
8039;BME280;4062;49.844;8.120;2022-12-13T06:42:17;98704.31;;;13.66;57.59
8039;BME280;4062;49.844;8.120;2022-12-13T06:44:18;98711.34;;;13.67;57.55
8039;BME280;4062;49.844;8.120;2022-12-13T06:46:18;98709.63;;;13.66;57.53
8039;BME280;4062;49.844;8.120;2022-12-13T06:48:19;98714.09;;;13.66;57.70
8039;BME280;4062;49.844;8.120;2022-12-13T06:50:20;98712.38;;;13.65;57.59
8039;BME280;4062;49.844;8.120;2022-12-13T06:52:21;98717.59;;;13.66;57.66
8039;BME280;4062;49.844;8.120;2022-12-13T06:54:21;98719.41;;;13.66;57.58
8039;BME280;4062;49.844;8.120;2022-12-13T06:56:22;98722.06;;;13.66;57.55
8039;BME280;4062;49.844;8.120;2022-12-13T06:58:23;98726.44;;;13.67;57.55
8039;BME280;4062;49.844;8.120;2022-12-13T07:00:24;98727.38;;;13.66;57.51
8039;BME280;4062;49.844;8.120;2022-12-13T07:02:25;98730.03;;;13.66;57.63
8039;BME280;4062;49.844;8.120;2022-12-13T07:04:26;98723.84;;;13.65;57.58
8039;BME280;4062;49.844;8.120;2022-12-13T07:06:27;98726.50;;;13.65;57.55
8039;BME280;4062;49.844;8.120;2022-12-13T07:08:28;98724.72;;;13.66;57.61
8039;BME280;4062;49.844;8.120;2022-12-13T07:10:29;98732.59;;;13.67;57.50
8039;BME280;4062;49.844;8.120;2022-12-13T07:12:31;98730.03;;;13.66;57.67
8039;BME280;4062;49.844;8.120;2022-12-13T07:14:32;98722.91;;;13.66;57.68
8039;BME280;4062;49.844;8.120;2022-12-13T07:16:33;98721.13;;;13.67;57.62
8039;BME280;4062;49.844;8.120;2022-12-13T07:18:33;98725.66;;;13.65;57.65
8039;BME280;4062;49.844;8.120;2022-12-13T07:20:34;98729.16;;;13.65;57.78
8039;BME280;4062;49.844;8.120;2022-12-13T07:22:36;98727.38;;;13.66;57.71
8039;BME280;4062;49.844;8.120;2022-12-13T07:24:37;98710.50;;;13.67;57.59
8039;BME280;4062;49.844;8.120;2022-12-13T07:26:38;98720.19;;;13.68;57.55
8039;BME280;4062;49.844;8.120;2022-12-13T07:28:39;98717.59;;;13.66;57.56
8039;BME280;4062;49.844;8.120;2022-12-13T07:30:39;98729.09;;;13.67;57.58
8039;BME280;4062;49.844;8.120;2022-12-13T07:32:40;98725.56;;;13.66;57.56
8039;BME280;4062;49.844;8.120;2022-12-13T07:34:41;98732.69;;;13.66;57.64
8039;BME280;4062;49.844;8.120;2022-12-13T07:36:42;98736.19;;;13.66;57.61
8039;BME280;4062;49.844;8.120;2022-12-13T07:38:42;98735.25;;;13.67;57.72
8039;BME280;4062;49.844;8.120;2022-12-13T07:40:43;98732.69;;;13.66;57.60
8039;BME280;4062;49.844;8.120;2022-12-13T07:42:55;98729.16;;;13.65;57.69
8039;BME280;4062;49.844;8.120;2022-12-13T07:44:56;98732.72;;;13.64;57.75
8039;BME280;4062;49.844;8.120;2022-12-13T07:46:56;98735.34;;;13.66;57.57
8039;BME280;4062;49.844;8.120;2022-12-13T07:48:57;98730.94;;;13.65;57.64
8039;BME280;4062;49.844;8.120;2022-12-13T07:51:05;98727.41;;;13.64;57.54
8039;BME280;4062;49.844;8.120;2022-12-13T07:53:07;98726.50;;;13.65;57.83
8039;BME280;4062;49.844;8.120;2022-12-13T07:55:08;98726.50;;;13.65;57.70
8039;BME280;4062;49.844;8.120;2022-12-13T07:57:09;98723.84;;;13.65;57.66
8039;BME280;4062;49.844;8.120;2022-12-13T07:59:10;98720.41;;;13.63;57.58
8039;BME280;4062;49.844;8.120;2022-12-13T08:01:10;98729.16;;;13.65;57.62
8039;BME280;4062;49.844;8.120;2022-12-13T08:03:12;98731.81;;;13.65;57.68
8039;BME280;4062;49.844;8.120;2022-12-13T08:05:13;98735.34;;;13.66;57.54
8039;BME280;4062;49.844;8.120;2022-12-13T08:07:14;98740.69;;;13.64;57.65
8039;BME280;4062;49.844;8.120;2022-12-13T08:09:15;98732.72;;;13.64;57.64
8039;BME280;4062;49.844;8.120;2022-12-13T08:11:15;98730.94;;;13.65;57.59
8039;BME280;4062;49.844;8.120;2022-12-13T08:13:16;98730.88;;;13.66;57.62
8039;BME280;4062;49.844;8.120;2022-12-13T08:15:17;98743.28;;;13.66;57.58
8039;BME280;4062;49.844;8.120;2022-12-13T08:17:18;98745.06;;;13.65;57.63
8039;BME280;4062;49.844;8.120;2022-12-13T08:19:19;98737.06;;;13.67;57.69
8039;BME280;4062;49.844;8.120;2022-12-13T08:21:20;98734.44;;;13.65;57.54
8039;BME280;4062;49.844;8.120;2022-12-13T08:23:20;98732.72;;;13.64;57.61
8039;BME280;4062;49.844;8.120;2022-12-13T08:25:21;98732.72;;;13.64;57.63
8039;BME280;4062;49.844;8.120;2022-12-13T08:27:22;98729.16;;;13.65;57.56
8039;BME280;4062;49.844;8.120;2022-12-13T08:29:23;98725.56;;;13.66;57.59
8039;BME280;4062;49.844;8.120;2022-12-13T08:31:23;98727.28;;;13.67;57.53
8039;BME280;4062;49.844;8.120;2022-12-13T08:33:24;98730.88;;;13.66;57.68
8039;BME280;4062;49.844;8.120;2022-12-13T08:35:27;98735.34;;;13.66;57.57
8039;BME280;4062;49.844;8.120;2022-12-13T08:37:28;98737.97;;;13.66;57.75
8039;BME280;4062;49.844;8.120;2022-12-13T08:39:35;98735.25;;;13.67;57.66
8039;BME280;4062;49.844;8.120;2022-12-13T08:41:36;98727.41;;;13.64;57.65
8039;BME280;4062;49.844;8.120;2022-12-13T08:43:37;98734.44;;;13.65;57.58
8039;BME280;4062;49.844;8.120;2022-12-13T08:45:37;98733.59;;;13.65;57.58
8039;BME280;4062;49.844;8.120;2022-12-13T08:47:39;98746.88;;;13.65;57.71
8039;BME280;4062;49.844;8.120;2022-12-13T08:49:39;98745.06;;;13.65;57.73
8039;BME280;4062;49.844;8.120;2022-12-13T08:51:41;98753.91;;;13.66;57.54
8039;BME280;4062;49.844;8.120;2022-12-13T08:53:42;98759.22;;;13.66;57.57
8039;BME280;4062;49.844;8.120;2022-12-13T08:55:43;98761.00;;;13.65;57.64
8039;BME280;4062;49.844;8.120;2022-12-13T08:57:44;98761.94;;;13.64;57.68
8039;BME280;4062;49.844;8.120;2022-12-13T08:59:45;98761.00;;;13.65;57.73
8039;BME280;4062;49.844;8.120;2022-12-13T09:01:46;98761.00;;;13.65;57.63
8039;BME280;4062;49.844;8.120;2022-12-13T09:03:46;98768.13;;;13.65;57.76
8039;BME280;4062;49.844;8.120;2022-12-13T09:05:47;98771.63;;;13.65;57.70
8039;BME280;4062;49.844;8.120;2022-12-13T09:07:48;98768.91;;;13.67;57.65
8039;BME280;4062;49.844;8.120;2022-12-13T09:09:49;98760.16;;;13.65;57.57
8039;BME280;4062;49.844;8.120;2022-12-13T09:11:49;98759.34;;;13.63;57.76
8039;BME280;4062;49.844;8.120;2022-12-13T09:13:50;98752.19;;;13.65;57.67
8039;BME280;4062;49.844;8.120;2022-12-13T09:15:51;98753.97;;;13.64;57.69
8039;BME280;4062;49.844;8.120;2022-12-13T09:17:51;98756.56;;;13.66;57.67
8039;BME280;4062;49.844;8.120;2022-12-13T09:19:52;98755.69;;;13.65;57.77
8039;BME280;4062;49.844;8.120;2022-12-13T09:21:53;98750.38;;;13.65;57.61
8039;BME280;4062;49.844;8.120;2022-12-13T09:23:54;98758.34;;;13.65;57.56
8039;BME280;4062;49.844;8.120;2022-12-13T09:25:56;98756.56;;;13.66;57.67
8039;BME280;4062;49.844;8.120;2022-12-13T09:27:58;98758.34;;;13.65;57.68
8039;BME280;4062;49.844;8.120;2022-12-13T09:30:01;98754.94;;;13.63;57.62
8039;BME280;4062;49.844;8.120;2022-12-13T09:32:02;98762.88;;;13.63;57.69
8039;BME280;4062;49.844;8.120;2022-12-13T09:34:03;98760.16;;;13.65;57.65
8039;BME280;4062;49.844;8.120;2022-12-13T09:36:06;98759.28;;;13.64;57.71
8039;BME280;4062;49.844;8.120;2022-12-13T09:38:07;98760.16;;;13.65;57.65
8039;BME280;4062;49.844;8.120;2022-12-13T09:40:17;98764.53;;;13.66;57.95
8039;BME280;4062;49.844;8.120;2022-12-13T09:42:24;98761.88;;;13.66;57.58
8039;BME280;4062;49.844;8.120;2022-12-13T09:44:34;98763.66;;;13.65;57.73
8039;BME280;4062;49.844;8.120;2022-12-13T09:46:41;98771.63;;;13.65;57.55
8039;BME280;4062;49.844;8.120;2022-12-13T09:48:43;98776.00;;;13.66;57.46
8039;BME280;4062;49.844;8.120;2022-12-13T09:50:44;98768.97;;;13.65;57.64
8039;BME280;4062;49.844;8.120;2022-12-13T09:52:45;98775.16;;;13.66;57.54
8039;BME280;4062;49.844;8.120;2022-12-13T09:54:46;98774.28;;;13.65;57.58
8039;BME280;4062;49.844;8.120;2022-12-13T09:56:48;98761.00;;;13.65;57.66
8039;BME280;4062;49.844;8.120;2022-12-13T09:58:53;98762.81;;;13.65;57.61
8039;BME280;4062;49.844;8.120;2022-12-13T10:00:57;98760.16;;;13.65;57.70
8039;BME280;4062;49.844;8.120;2022-12-13T10:02:59;98761.94;;;13.64;57.67
8039;BME280;4062;49.844;8.120;2022-12-13T10:05:36;98752.28;;;13.63;57.64
8039;BME280;4062;49.844;8.120;2022-12-13T10:07:39;98749.53;;;13.65;57.63
8039;BME280;4062;49.844;8.120;2022-12-13T10:09:40;98748.66;;;13.64;57.64
8039;BME280;4062;49.844;8.120;2022-12-13T10:11:52;98755.69;;;13.65;57.54
8039;BME280;4062;49.844;8.120;2022-12-13T10:14:28;98745.06;;;13.65;57.62
8039;BME280;4062;49.844;8.120;2022-12-13T10:18:41;98747.72;;;13.65;57.61
8039;BME280;4062;49.844;8.120;2022-12-13T10:20:42;98746.00;;;13.64;57.74
8039;BME280;4062;49.844;8.120;2022-12-13T10:22:43;98741.56;;;13.65;57.59
8039;BME280;4062;49.844;8.120;2022-12-13T10:27:11;98740.63;;;13.66;57.71
8039;BME280;4062;49.844;8.120;2022-12-13T10:29:12;98733.59;;;13.65;57.54
8039;BME280;4062;49.844;8.120;2022-12-13T10:31:18;98732.72;;;13.64;57.70
8039;BME280;4062;49.844;8.120;2022-12-13T10:33:38;98721.25;;;13.64;57.51
8039;BME280;4062;49.844;8.120;2022-12-13T10:35:42;98723.91;;;13.64;57.66
8039;BME280;4062;49.844;8.120;2022-12-13T10:37:43;98723.00;;;13.65;57.69
8039;BME280;4062;49.844;8.120;2022-12-13T10:39:44;98723.00;;;13.65;57.64
8039;BME280;4062;49.844;8.120;2022-12-13T10:41:45;98722.13;;;13.64;57.62
8039;BME280;4062;49.844;8.120;2022-12-13T10:44:16;98728.28;;;13.65;57.65
8039;BME280;4062;49.844;8.120;2022-12-13T10:46:19;98725.66;;;13.65;57.63
8039;BME280;4062;49.844;8.120;2022-12-13T10:48:23;98730.06;;;13.64;57.58
8039;BME280;4062;49.844;8.120;2022-12-13T10:50:27;98720.34;;;13.65;57.57
8039;BME280;4062;49.844;8.120;2022-12-13T10:52:39;98724.75;;;13.64;57.58
8039;BME280;4062;49.844;8.120;2022-12-13T10:54:48;98718.59;;;13.64;57.56
8039;BME280;4062;49.844;8.120;2022-12-13T10:56:51;98717.75;;;13.63;57.67
8039;BME280;4062;49.844;8.120;2022-12-13T10:59:36;98719.53;;;13.63;57.76
8039;BME280;4062;49.844;8.120;2022-12-13T11:01:37;98722.13;;;13.64;57.63
8039;BME280;4062;49.844;8.120;2022-12-13T11:03:38;98716.81;;;13.64;57.55
8039;BME280;4062;49.844;8.120;2022-12-13T11:05:38;98708.06;;;13.62;57.67
8039;BME280;4062;49.844;8.120;2022-12-13T11:07:40;98711.56;;;13.63;57.59
8039;BME280;4062;49.844;8.120;2022-12-13T11:09:40;98708.84;;;13.64;57.70
8039;BME280;4062;49.844;8.120;2022-12-13T11:11:42;98709.72;;;13.65;57.69
8039;BME280;4062;49.844;8.120;2022-12-13T11:13:56;98697.28;;;13.65;57.67
8039;BME280;4062;49.844;8.120;2022-12-13T11:16:01;98697.28;;;13.65;57.66
8039;BME280;4062;49.844;8.120;2022-12-13T11:18:07;98690.22;;;13.66;57.73
8039;BME280;4062;49.844;8.120;2022-12-13T11:20:32;98697.28;;;13.65;57.68
8039;BME280;4062;49.844;8.120;2022-12-13T11:22:36;98692.91;;;13.64;57.72
8039;BME280;4062;49.844;8.120;2022-12-13T11:24:40;98684.00;;;13.65;57.64
8039;BME280;4062;49.844;8.120;2022-12-13T11:26:52;98679.63;;;13.64;57.71
8039;BME280;4062;49.844;8.120;2022-12-13T11:29:10;98674.41;;;13.63;57.63
8039;BME280;4062;49.844;8.120;2022-12-13T11:34:13;98676.97;;;13.64;57.71
8039;BME280;4062;49.844;8.120;2022-12-13T11:36:37;98678.72;;;13.65;57.69
8039;BME280;4062;49.844;8.120;2022-12-13T11:41:26;98655.75;;;13.64;57.70
8039;BME280;4062;49.844;8.120;2022-12-13T11:45:54;98656.63;;;13.65;57.72